sensor_id;sensor_type;location;lat;lon;timestamp;P1;durP1;ratioP1;P2;durP2;ratioP2
12878;SDS011;20617;49.476;10.986;2022-11-23T00:00:33;8.38;;;4.10;;
12878;SDS011;20617;49.476;10.986;2022-11-23T00:02:38;7.30;;;3.63;;
12878;SDS011;20617;49.476;10.986;2022-11-23T00:04:45;10.70;;;4.13;;
12878;SDS011;20617;49.476;10.986;2022-11-23T00:06:50;7.97;;;4.07;;
12878;SDS011;20617;49.476;10.986;2022-11-23T00:08:55;9.75;;;4.57;;
12878;SDS011;20617;49.476;10.986;2022-11-23T00:11:01;13.05;;;5.00;;
12878;SDS011;20617;49.476;10.986;2022-11-23T00:13:06;10.27;;;4.63;;
12878;SDS011;20617;49.476;10.986;2022-11-23T00:15:14;8.52;;;4.55;;
12878;SDS011;20617;49.476;10.986;2022-11-23T00:17:19;9.80;;;3.92;;
12878;SDS011;20617;49.476;10.986;2022-11-23T00:19:23;6.35;;;3.60;;
12878;SDS011;20617;49.476;10.986;2022-11-23T00:21:29;9.80;;;4.20;;
12878;SDS011;20617;49.476;10.986;2022-11-23T00:23:36;7.72;;;3.67;;
12878;SDS011;20617;49.476;10.986;2022-11-23T00:27:47;8.73;;;3.72;;
12878;SDS011;20617;49.476;10.986;2022-11-23T00:29:52;6.78;;;3.63;;
12878;SDS011;20617;49.476;10.986;2022-11-23T00:31:59;10.13;;;3.50;;
12878;SDS011;20617;49.476;10.986;2022-11-23T00:34:04;7.95;;;3.35;;
12878;SDS011;20617;49.476;10.986;2022-11-23T00:36:09;7.75;;;3.75;;
12878;SDS011;20617;49.476;10.986;2022-11-23T00:38:16;9.65;;;3.28;;
12878;SDS011;20617;49.476;10.986;2022-11-23T00:40:22;9.32;;;3.88;;
12878;SDS011;20617;49.476;10.986;2022-11-23T00:42:27;7.65;;;3.72;;
12878;SDS011;20617;49.476;10.986;2022-11-23T00:44:38;8.07;;;3.65;;
12878;SDS011;20617;49.476;10.986;2022-11-23T00:46:43;8.18;;;4.10;;
12878;SDS011;20617;49.476;10.986;2022-11-23T00:48:51;14.55;;;3.65;;
12878;SDS011;20617;49.476;10.986;2022-11-23T00:50:59;8.88;;;3.78;;
12878;SDS011;20617;49.476;10.986;2022-11-23T00:53:04;8.80;;;3.13;;
12878;SDS011;20617;49.476;10.986;2022-11-23T00:55:09;7.35;;;3.40;;
12878;SDS011;20617;49.476;10.986;2022-11-23T00:57:14;7.53;;;3.45;;
12878;SDS011;20617;49.476;10.986;2022-11-23T00:59:19;7.95;;;3.40;;
12878;SDS011;20617;49.476;10.986;2022-11-23T01:01:24;6.75;;;2.95;;
12878;SDS011;20617;49.476;10.986;2022-11-23T01:03:31;5.93;;;2.95;;
12878;SDS011;20617;49.476;10.986;2022-11-23T01:05:39;6.57;;;2.75;;
12878;SDS011;20617;49.476;10.986;2022-11-23T01:07:44;8.95;;;2.72;;
12878;SDS011;20617;49.476;10.986;2022-11-23T01:09:49;7.18;;;2.92;;
12878;SDS011;20617;49.476;10.986;2022-11-23T01:11:54;8.95;;;3.03;;
12878;SDS011;20617;49.476;10.986;2022-11-23T01:13:59;7.05;;;3.03;;
12878;SDS011;20617;49.476;10.986;2022-11-23T01:16:06;6.85;;;3.08;;
12878;SDS011;20617;49.476;10.986;2022-11-23T01:18:13;7.80;;;3.10;;
12878;SDS011;20617;49.476;10.986;2022-11-23T01:20:18;6.85;;;3.22;;
12878;SDS011;20617;49.476;10.986;2022-11-23T01:22:25;6.13;;;2.97;;
12878;SDS011;20617;49.476;10.986;2022-11-23T01:24:30;7.57;;;3.10;;
12878;SDS011;20617;49.476;10.986;2022-11-23T01:26:35;4.75;;;2.97;;
12878;SDS011;20617;49.476;10.986;2022-11-23T01:28:40;9.27;;;3.38;;
12878;SDS011;20617;49.476;10.986;2022-11-23T01:30:45;6.60;;;3.38;;
12878;SDS011;20617;49.476;10.986;2022-11-23T01:32:50;8.10;;;3.00;;
12878;SDS011;20617;49.476;10.986;2022-11-23T01:34:55;5.97;;;2.95;;
12878;SDS011;20617;49.476;10.986;2022-11-23T01:37:01;7.65;;;2.95;;
12878;SDS011;20617;49.476;10.986;2022-11-23T01:39:09;6.78;;;2.88;;
12878;SDS011;20617;49.476;10.986;2022-11-23T01:41:15;6.53;;;3.28;;
12878;SDS011;20617;49.476;10.986;2022-11-23T01:43:22;4.47;;;2.40;;
12878;SDS011;20617;49.476;10.986;2022-11-23T01:45:31;5.80;;;3.13;;
12878;SDS011;20617;49.476;10.986;2022-11-23T01:47:42;8.10;;;3.03;;
12878;SDS011;20617;49.476;10.986;2022-11-23T01:49:48;5.88;;;2.90;;
12878;SDS011;20617;49.476;10.986;2022-11-23T01:51:57;5.25;;;2.55;;
12878;SDS011;20617;49.476;10.986;2022-11-23T01:54:06;6.32;;;2.40;;
12878;SDS011;20617;49.476;10.986;2022-11-23T01:56:18;4.38;;;2.38;;
12878;SDS011;20617;49.476;10.986;2022-11-23T01:58:29;6.28;;;2.90;;
12878;SDS011;20617;49.476;10.986;2022-11-23T02:00:38;6.68;;;2.88;;
12878;SDS011;20617;49.476;10.986;2022-11-23T02:04:50;6.40;;;2.65;;
12878;SDS011;20617;49.476;10.986;2022-11-23T02:06:58;8.85;;;2.90;;
12878;SDS011;20617;49.476;10.986;2022-11-23T02:09:05;6.03;;;2.88;;
12878;SDS011;20617;49.476;10.986;2022-11-23T02:11:13;6.40;;;2.70;;
12878;SDS011;20617;49.476;10.986;2022-11-23T02:13:21;5.82;;;2.70;;
12878;SDS011;20617;49.476;10.986;2022-11-23T02:15:28;7.15;;;2.50;;
12878;SDS011;20617;49.476;10.986;2022-11-23T02:17:33;6.30;;;2.88;;
12878;SDS011;20617;49.476;10.986;2022-11-23T02:19:42;7.00;;;2.67;;
12878;SDS011;20617;49.476;10.986;2022-11-23T02:22:00;7.57;;;2.72;;
12878;SDS011;20617;49.476;10.986;2022-11-23T02:24:06;4.95;;;2.13;;
12878;SDS011;20617;49.476;10.986;2022-11-23T02:26:20;7.28;;;2.65;;
12878;SDS011;20617;49.476;10.986;2022-11-23T02:28:27;7.25;;;3.00;;
12878;SDS011;20617;49.476;10.986;2022-11-23T02:30:35;5.82;;;2.72;;
12878;SDS011;20617;49.476;10.986;2022-11-23T02:32:45;6.93;;;3.40;;
12878;SDS011;20617;49.476;10.986;2022-11-23T02:34:51;9.30;;;2.70;;
12878;SDS011;20617;49.476;10.986;2022-11-23T02:36:56;6.30;;;2.45;;
12878;SDS011;20617;49.476;10.986;2022-11-23T02:39:05;5.80;;;2.97;;
12878;SDS011;20617;49.476;10.986;2022-11-23T02:41:13;6.97;;;3.15;;
12878;SDS011;20617;49.476;10.986;2022-11-23T02:43:21;5.93;;;3.13;;
12878;SDS011;20617;49.476;10.986;2022-11-23T02:45:30;4.68;;;2.20;;
12878;SDS011;20617;49.476;10.986;2022-11-23T02:47:40;5.47;;;2.58;;
12878;SDS011;20617;49.476;10.986;2022-11-23T02:49:45;6.68;;;2.78;;
12878;SDS011;20617;49.476;10.986;2022-11-23T02:51:52;7.88;;;3.13;;
12878;SDS011;20617;49.476;10.986;2022-11-23T02:53:59;5.05;;;2.70;;
12878;SDS011;20617;49.476;10.986;2022-11-23T02:56:04;6.65;;;2.72;;
12878;SDS011;20617;49.476;10.986;2022-11-23T02:58:09;6.47;;;3.20;;
12878;SDS011;20617;49.476;10.986;2022-11-23T03:00:18;6.22;;;3.03;;
12878;SDS011;20617;49.476;10.986;2022-11-23T03:02:23;7.35;;;2.70;;
12878;SDS011;20617;49.476;10.986;2022-11-23T03:04:28;7.75;;;3.38;;
12878;SDS011;20617;49.476;10.986;2022-11-23T03:06:33;6.18;;;2.90;;
12878;SDS011;20617;49.476;10.986;2022-11-23T03:08:38;9.40;;;3.15;;
12878;SDS011;20617;49.476;10.986;2022-11-23T03:10:46;7.05;;;2.92;;
12878;SDS011;20617;49.476;10.986;2022-11-23T03:12:53;6.55;;;3.15;;
12878;SDS011;20617;49.476;10.986;2022-11-23T03:15:00;6.60;;;3.38;;
12878;SDS011;20617;49.476;10.986;2022-11-23T03:17:09;7.05;;;2.97;;
12878;SDS011;20617;49.476;10.986;2022-11-23T03:19:17;7.72;;;3.00;;
12878;SDS011;20617;49.476;10.986;2022-11-23T03:21:24;10.10;;;2.90;;
12878;SDS011;20617;49.476;10.986;2022-11-23T03:23:40;6.32;;;2.63;;
12878;SDS011;20617;49.476;10.986;2022-11-23T03:25:53;4.78;;;2.67;;
12878;SDS011;20617;49.476;10.986;2022-11-23T03:28:01;5.60;;;3.08;;
12878;SDS011;20617;49.476;10.986;2022-11-23T03:30:07;4.45;;;2.60;;
12878;SDS011;20617;49.476;10.986;2022-11-23T03:32:15;6.10;;;2.63;;
12878;SDS011;20617;49.476;10.986;2022-11-23T03:34:24;7.90;;;3.40;;
12878;SDS011;20617;49.476;10.986;2022-11-23T03:36:29;7.53;;;3.45;;
12878;SDS011;20617;49.476;10.986;2022-11-23T03:38:34;7.07;;;3.15;;
12878;SDS011;20617;49.476;10.986;2022-11-23T03:40:50;7.95;;;3.20;;
12878;SDS011;20617;49.476;10.986;2022-11-23T03:43:02;6.63;;;2.85;;
12878;SDS011;20617;49.476;10.986;2022-11-23T03:45:08;4.57;;;2.70;;
12878;SDS011;20617;49.476;10.986;2022-11-23T03:47:16;5.80;;;3.03;;
12878;SDS011;20617;49.476;10.986;2022-11-23T03:49:21;9.05;;;3.20;;
12878;SDS011;20617;49.476;10.986;2022-11-23T03:51:26;5.55;;;2.90;;
12878;SDS011;20617;49.476;10.986;2022-11-23T03:53:31;5.95;;;3.05;;
12878;SDS011;20617;49.476;10.986;2022-11-23T03:57:46;8.10;;;3.67;;
12878;SDS011;20617;49.476;10.986;2022-11-23T03:59:51;8.82;;;3.58;;
12878;SDS011;20617;49.476;10.986;2022-11-23T04:01:56;9.00;;;3.30;;
12878;SDS011;20617;49.476;10.986;2022-11-23T04:04:08;7.53;;;3.92;;
12878;SDS011;20617;49.476;10.986;2022-11-23T04:06:39;7.03;;;3.53;;
12878;SDS011;20617;49.476;10.986;2022-11-23T04:08:51;5.57;;;3.20;;
12878;SDS011;20617;49.476;10.986;2022-11-23T04:11:16;7.18;;;3.28;;
12878;SDS011;20617;49.476;10.986;2022-11-23T04:13:23;8.07;;;3.35;;
12878;SDS011;20617;49.476;10.986;2022-11-23T04:15:29;6.78;;;3.08;;
12878;SDS011;20617;49.476;10.986;2022-11-23T04:17:34;4.55;;;2.92;;
12878;SDS011;20617;49.476;10.986;2022-11-23T04:19:42;5.60;;;3.33;;
12878;SDS011;20617;49.476;10.986;2022-11-23T04:21:48;8.27;;;3.35;;
12878;SDS011;20617;49.476;10.986;2022-11-23T04:23:54;6.65;;;3.80;;
12878;SDS011;20617;49.476;10.986;2022-11-23T04:26:00;7.65;;;3.20;;
12878;SDS011;20617;49.476;10.986;2022-11-23T04:28:07;7.82;;;3.80;;
12878;SDS011;20617;49.476;10.986;2022-11-23T04:32:18;7.60;;;4.07;;
12878;SDS011;20617;49.476;10.986;2022-11-23T04:34:23;8.15;;;4.07;;
12878;SDS011;20617;49.476;10.986;2022-11-23T04:36:31;11.82;;;4.65;;
12878;SDS011;20617;49.476;10.986;2022-11-23T04:38:36;8.80;;;3.92;;
12878;SDS011;20617;49.476;10.986;2022-11-23T04:40:42;9.82;;;3.67;;
12878;SDS011;20617;49.476;10.986;2022-11-23T04:42:46;9.35;;;4.38;;
12878;SDS011;20617;49.476;10.986;2022-11-23T04:44:51;8.18;;;4.30;;
12878;SDS011;20617;49.476;10.986;2022-11-23T04:46:58;7.93;;;3.50;;
12878;SDS011;20617;49.476;10.986;2022-11-23T04:49:05;7.55;;;3.63;;
12878;SDS011;20617;49.476;10.986;2022-11-23T04:51:11;8.07;;;3.60;;
12878;SDS011;20617;49.476;10.986;2022-11-23T04:53:19;9.20;;;3.75;;
12878;SDS011;20617;49.476;10.986;2022-11-23T04:55:24;7.55;;;3.53;;
12878;SDS011;20617;49.476;10.986;2022-11-23T04:57:31;7.75;;;3.92;;
12878;SDS011;20617;49.476;10.986;2022-11-23T04:59:36;5.18;;;3.75;;
12878;SDS011;20617;49.476;10.986;2022-11-23T05:01:41;8.00;;;3.13;;
12878;SDS011;20617;49.476;10.986;2022-11-23T05:04:15;7.55;;;3.40;;
12878;SDS011;20617;49.476;10.986;2022-11-23T05:06:22;7.05;;;4.07;;
12878;SDS011;20617;49.476;10.986;2022-11-23T05:08:30;7.57;;;4.10;;
12878;SDS011;20617;49.476;10.986;2022-11-23T05:10:58;8.43;;;3.70;;
12878;SDS011;20617;49.476;10.986;2022-11-23T05:13:03;8.57;;;4.15;;
12878;SDS011;20617;49.476;10.986;2022-11-23T05:15:09;7.28;;;3.42;;
12878;SDS011;20617;49.476;10.986;2022-11-23T05:17:18;6.05;;;3.45;;
12878;SDS011;20617;49.476;10.986;2022-11-23T05:19:25;7.97;;;3.72;;
12878;SDS011;20617;49.476;10.986;2022-11-23T05:21:30;8.23;;;3.70;;
12878;SDS011;20617;49.476;10.986;2022-11-23T05:23:38;11.25;;;3.65;;
12878;SDS011;20617;49.476;10.986;2022-11-23T05:25:43;7.35;;;3.38;;
12878;SDS011;20617;49.476;10.986;2022-11-23T05:27:51;7.88;;;3.25;;
12878;SDS011;20617;49.476;10.986;2022-11-23T05:32:00;6.75;;;3.88;;
12878;SDS011;20617;49.476;10.986;2022-11-23T05:34:06;7.68;;;4.07;;
12878;SDS011;20617;49.476;10.986;2022-11-23T05:36:18;5.88;;;3.28;;
12878;SDS011;20617;49.476;10.986;2022-11-23T05:38:24;7.22;;;3.70;;
12878;SDS011;20617;49.476;10.986;2022-11-23T05:40:35;6.43;;;3.53;;
12878;SDS011;20617;49.476;10.986;2022-11-23T05:42:41;6.60;;;3.20;;
12878;SDS011;20617;49.476;10.986;2022-11-23T05:44:52;7.13;;;3.88;;
12878;SDS011;20617;49.476;10.986;2022-11-23T05:47:05;8.52;;;3.72;;
12878;SDS011;20617;49.476;10.986;2022-11-23T05:49:11;7.90;;;3.65;;
12878;SDS011;20617;49.476;10.986;2022-11-23T05:51:19;8.07;;;4.60;;
12878;SDS011;20617;49.476;10.986;2022-11-23T05:53:24;8.50;;;4.72;;
12878;SDS011;20617;49.476;10.986;2022-11-23T05:55:38;9.55;;;5.00;;
12878;SDS011;20617;49.476;10.986;2022-11-23T05:57:43;13.05;;;5.55;;
12878;SDS011;20617;49.476;10.986;2022-11-23T05:59:49;10.90;;;6.03;;
12878;SDS011;20617;49.476;10.986;2022-11-23T06:01:59;9.13;;;5.28;;
12878;SDS011;20617;49.476;10.986;2022-11-23T06:04:06;9.88;;;5.15;;
12878;SDS011;20617;49.476;10.986;2022-11-23T06:06:16;10.13;;;5.20;;
12878;SDS011;20617;49.476;10.986;2022-11-23T06:08:21;8.05;;;4.55;;
12878;SDS011;20617;49.476;10.986;2022-11-23T06:10:26;7.95;;;4.32;;
12878;SDS011;20617;49.476;10.986;2022-11-23T06:12:33;9.65;;;4.53;;
12878;SDS011;20617;49.476;10.986;2022-11-23T06:14:41;6.88;;;3.70;;
12878;SDS011;20617;49.476;10.986;2022-11-23T06:16:49;7.47;;;3.88;;
12878;SDS011;20617;49.476;10.986;2022-11-23T06:19:14;6.70;;;4.10;;
12878;SDS011;20617;49.476;10.986;2022-11-23T06:21:19;8.73;;;4.32;;
12878;SDS011;20617;49.476;10.986;2022-11-23T06:23:25;6.43;;;3.83;;
12878;SDS011;20617;49.476;10.986;2022-11-23T06:25:32;11.27;;;4.15;;
12878;SDS011;20617;49.476;10.986;2022-11-23T06:27:52;14.15;;;4.50;;
12878;SDS011;20617;49.476;10.986;2022-11-23T06:30:03;8.18;;;4.38;;
12878;SDS011;20617;49.476;10.986;2022-11-23T06:32:11;9.63;;;4.57;;
12878;SDS011;20617;49.476;10.986;2022-11-23T06:34:20;6.75;;;4.15;;
12878;SDS011;20617;49.476;10.986;2022-11-23T06:36:25;8.43;;;3.92;;
12878;SDS011;20617;49.476;10.986;2022-11-23T06:38:31;12.20;;;4.10;;
12878;SDS011;20617;49.476;10.986;2022-11-23T06:40:55;7.72;;;3.88;;
12878;SDS011;20617;49.476;10.986;2022-11-23T06:43:05;8.57;;;4.20;;
12878;SDS011;20617;49.476;10.986;2022-11-23T06:45:16;9.88;;;4.63;;
12878;SDS011;20617;49.476;10.986;2022-11-23T06:47:24;11.15;;;5.15;;
12878;SDS011;20617;49.476;10.986;2022-11-23T06:49:31;10.20;;;4.57;;
12878;SDS011;20617;49.476;10.986;2022-11-23T06:51:49;10.57;;;4.40;;
12878;SDS011;20617;49.476;10.986;2022-11-23T06:56:00;8.35;;;5.20;;
12878;SDS011;20617;49.476;10.986;2022-11-23T06:58:08;9.05;;;5.03;;
12878;SDS011;20617;49.476;10.986;2022-11-23T07:00:13;10.88;;;5.00;;
12878;SDS011;20617;49.476;10.986;2022-11-23T07:02:19;12.10;;;5.25;;
12878;SDS011;20617;49.476;10.986;2022-11-23T07:04:24;10.15;;;4.85;;
12878;SDS011;20617;49.476;10.986;2022-11-23T07:06:29;10.02;;;4.72;;
12878;SDS011;20617;49.476;10.986;2022-11-23T07:08:39;10.32;;;5.40;;
12878;SDS011;20617;49.476;10.986;2022-11-23T07:11:06;11.52;;;5.72;;
12878;SDS011;20617;49.476;10.986;2022-11-23T07:13:15;15.40;;;6.38;;
12878;SDS011;20617;49.476;10.986;2022-11-23T07:15:20;12.60;;;6.40;;
12878;SDS011;20617;49.476;10.986;2022-11-23T07:17:26;15.00;;;6.68;;
12878;SDS011;20617;49.476;10.986;2022-11-23T07:19:31;11.27;;;5.63;;
12878;SDS011;20617;49.476;10.986;2022-11-23T07:23:44;9.30;;;4.97;;
12878;SDS011;20617;49.476;10.986;2022-11-23T07:25:49;10.07;;;5.03;;
12878;SDS011;20617;49.476;10.986;2022-11-23T07:27:54;9.80;;;5.15;;
12878;SDS011;20617;49.476;10.986;2022-11-23T07:30:03;8.88;;;4.63;;
12878;SDS011;20617;49.476;10.986;2022-11-23T07:32:09;11.77;;;4.90;;
12878;SDS011;20617;49.476;10.986;2022-11-23T07:34:15;7.53;;;4.18;;
12878;SDS011;20617;49.476;10.986;2022-11-23T07:36:20;10.25;;;5.45;;
12878;SDS011;20617;49.476;10.986;2022-11-23T07:38:25;11.43;;;5.15;;
12878;SDS011;20617;49.476;10.986;2022-11-23T07:40:30;9.98;;;4.95;;
12878;SDS011;20617;49.476;10.986;2022-11-23T07:42:35;12.32;;;4.60;;
12878;SDS011;20617;49.476;10.986;2022-11-23T07:44:45;6.43;;;4.22;;
12878;SDS011;20617;49.476;10.986;2022-11-23T07:46:54;8.45;;;4.47;;
12878;SDS011;20617;49.476;10.986;2022-11-23T07:48:58;9.20;;;4.40;;
12878;SDS011;20617;49.476;10.986;2022-11-23T07:51:03;6.95;;;4.70;;
12878;SDS011;20617;49.476;10.986;2022-11-23T07:53:09;7.03;;;3.70;;
12878;SDS011;20617;49.476;10.986;2022-11-23T07:55:14;7.32;;;4.15;;
12878;SDS011;20617;49.476;10.986;2022-11-23T07:57:19;9.85;;;4.40;;
12878;SDS011;20617;49.476;10.986;2022-11-23T07:59:24;10.05;;;3.97;;
12878;SDS011;20617;49.476;10.986;2022-11-23T08:01:29;7.97;;;4.53;;
12878;SDS011;20617;49.476;10.986;2022-11-23T08:03:37;10.23;;;4.50;;
12878;SDS011;20617;49.476;10.986;2022-11-23T08:05:42;8.35;;;3.90;;
12878;SDS011;20617;49.476;10.986;2022-11-23T08:07:47;6.70;;;4.38;;
12878;SDS011;20617;49.476;10.986;2022-11-23T08:09:51;8.48;;;4.00;;
12878;SDS011;20617;49.476;10.986;2022-11-23T08:11:56;10.10;;;4.60;;
12878;SDS011;20617;49.476;10.986;2022-11-23T08:14:01;7.88;;;4.30;;
12878;SDS011;20617;49.476;10.986;2022-11-23T08:16:06;9.45;;;4.75;;
12878;SDS011;20617;49.476;10.986;2022-11-23T08:18:11;9.98;;;4.82;;
12878;SDS011;20617;49.476;10.986;2022-11-23T08:20:18;9.23;;;4.80;;
12878;SDS011;20617;49.476;10.986;2022-11-23T08:22:23;8.88;;;5.22;;
12878;SDS011;20617;49.476;10.986;2022-11-23T08:24:28;9.65;;;5.20;;
12878;SDS011;20617;49.476;10.986;2022-11-23T08:26:33;9.40;;;5.35;;
12878;SDS011;20617;49.476;10.986;2022-11-23T08:28:38;11.60;;;5.25;;
12878;SDS011;20617;49.476;10.986;2022-11-23T08:30:43;11.27;;;5.38;;
12878;SDS011;20617;49.476;10.986;2022-11-23T08:32:48;10.75;;;5.45;;
12878;SDS011;20617;49.476;10.986;2022-11-23T08:34:53;11.18;;;6.00;;
12878;SDS011;20617;49.476;10.986;2022-11-23T08:37:01;11.48;;;6.03;;
12878;SDS011;20617;49.476;10.986;2022-11-23T08:39:05;10.45;;;4.97;;
12878;SDS011;20617;49.476;10.986;2022-11-23T08:41:11;12.45;;;5.82;;
12878;SDS011;20617;49.476;10.986;2022-11-23T08:43:18;11.35;;;6.00;;
12878;SDS011;20617;49.476;10.986;2022-11-23T08:45:23;12.07;;;4.90;;
12878;SDS011;20617;49.476;10.986;2022-11-23T08:47:28;10.30;;;4.95;;
12878;SDS011;20617;49.476;10.986;2022-11-23T08:49:34;11.75;;;4.90;;
12878;SDS011;20617;49.476;10.986;2022-11-23T08:51:39;11.20;;;5.00;;
12878;SDS011;20617;49.476;10.986;2022-11-23T08:53:53;8.32;;;4.82;;
12878;SDS011;20617;49.476;10.986;2022-11-23T08:55:59;8.57;;;4.15;;
12878;SDS011;20617;49.476;10.986;2022-11-23T08:58:04;8.20;;;3.75;;
12878;SDS011;20617;49.476;10.986;2022-11-23T09:00:14;8.00;;;4.20;;
12878;SDS011;20617;49.476;10.986;2022-11-23T09:02:21;10.93;;;5.00;;
12878;SDS011;20617;49.476;10.986;2022-11-23T09:04:25;8.07;;;4.35;;
12878;SDS011;20617;49.476;10.986;2022-11-23T09:06:31;8.63;;;4.90;;
12878;SDS011;20617;49.476;10.986;2022-11-23T09:08:36;9.65;;;5.22;;
12878;SDS011;20617;49.476;10.986;2022-11-23T09:10:45;7.50;;;4.60;;
12878;SDS011;20617;49.476;10.986;2022-11-23T09:12:50;8.52;;;4.85;;
12878;SDS011;20617;49.476;10.986;2022-11-23T09:14:55;10.30;;;5.25;;
12878;SDS011;20617;49.476;10.986;2022-11-23T09:17:00;8.63;;;5.20;;
12878;SDS011;20617;49.476;10.986;2022-11-23T09:21:10;12.20;;;5.82;;
12878;SDS011;20617;49.476;10.986;2022-11-23T09:23:15;7.85;;;4.97;;
12878;SDS011;20617;49.476;10.986;2022-11-23T09:25:20;9.32;;;5.13;;
12878;SDS011;20617;49.476;10.986;2022-11-23T09:27:30;10.13;;;4.93;;
12878;SDS011;20617;49.476;10.986;2022-11-23T09:29:35;8.02;;;4.55;;
12878;SDS011;20617;49.476;10.986;2022-11-23T09:31:39;8.50;;;4.93;;
12878;SDS011;20617;49.476;10.986;2022-11-23T09:33:44;10.57;;;4.75;;
12878;SDS011;20617;49.476;10.986;2022-11-23T09:35:55;9.18;;;5.07;;
12878;SDS011;20617;49.476;10.986;2022-11-23T09:38:00;9.57;;;5.43;;
12878;SDS011;20617;49.476;10.986;2022-11-23T09:40:06;12.32;;;5.60;;
12878;SDS011;20617;49.476;10.986;2022-11-23T09:44:58;7.53;;;4.07;;
12878;SDS011;20617;49.476;10.986;2022-11-23T09:47:25;8.20;;;4.60;;
12878;SDS011;20617;49.476;10.986;2022-11-23T09:49:43;6.47;;;3.70;;
12878;SDS011;20617;49.476;10.986;2022-11-23T09:51:55;8.48;;;4.45;;
12878;SDS011;20617;49.476;10.986;2022-11-23T09:54:02;7.93;;;4.40;;
12878;SDS011;20617;49.476;10.986;2022-11-23T09:56:15;9.50;;;4.07;;
12878;SDS011;20617;49.476;10.986;2022-11-23T09:58:26;7.47;;;3.90;;
12878;SDS011;20617;49.476;10.986;2022-11-23T10:00:36;8.13;;;4.68;;
12878;SDS011;20617;49.476;10.986;2022-11-23T10:02:45;9.15;;;4.22;;
12878;SDS011;20617;49.476;10.986;2022-11-23T10:06:57;7.72;;;4.30;;
12878;SDS011;20617;49.476;10.986;2022-11-23T10:09:19;7.85;;;3.97;;
12878;SDS011;20617;49.476;10.986;2022-11-23T10:14:12;7.50;;;3.80;;
12878;SDS011;20617;49.476;10.986;2022-11-23T10:16:28;16.13;;;5.30;;
12878;SDS011;20617;49.476;10.986;2022-11-23T10:18:44;7.22;;;4.30;;
12878;SDS011;20617;49.476;10.986;2022-11-23T10:20:58;8.98;;;4.53;;
12878;SDS011;20617;49.476;10.986;2022-11-23T10:23:12;11.25;;;4.65;;
12878;SDS011;20617;49.476;10.986;2022-11-23T10:25:21;10.90;;;4.65;;
12878;SDS011;20617;49.476;10.986;2022-11-23T10:27:27;9.63;;;4.88;;
12878;SDS011;20617;49.476;10.986;2022-11-23T10:31:41;10.30;;;4.35;;
12878;SDS011;20617;49.476;10.986;2022-11-23T10:33:59;9.13;;;4.05;;
12878;SDS011;20617;49.476;10.986;2022-11-23T10:36:07;8.13;;;3.80;;
12878;SDS011;20617;49.476;10.986;2022-11-23T10:38:14;8.60;;;4.20;;
12878;SDS011;20617;49.476;10.986;2022-11-23T10:40:21;6.50;;;3.97;;
12878;SDS011;20617;49.476;10.986;2022-11-23T10:42:29;11.20;;;3.90;;
12878;SDS011;20617;49.476;10.986;2022-11-23T10:44:42;9.40;;;4.45;;
12878;SDS011;20617;49.476;10.986;2022-11-23T10:46:48;9.93;;;4.00;;
12878;SDS011;20617;49.476;10.986;2022-11-23T10:48:53;7.30;;;4.63;;
12878;SDS011;20617;49.476;10.986;2022-11-23T10:51:09;9.98;;;5.03;;
12878;SDS011;20617;49.476;10.986;2022-11-23T10:53:20;7.65;;;3.85;;
12878;SDS011;20617;49.476;10.986;2022-11-23T10:55:29;8.05;;;3.75;;
12878;SDS011;20617;49.476;10.986;2022-11-23T10:57:40;8.40;;;3.47;;
12878;SDS011;20617;49.476;10.986;2022-11-23T10:59:55;7.57;;;4.25;;
12878;SDS011;20617;49.476;10.986;2022-11-23T11:02:10;10.38;;;3.88;;
12878;SDS011;20617;49.476;10.986;2022-11-23T11:04:20;8.85;;;4.03;;
12878;SDS011;20617;49.476;10.986;2022-11-23T11:06:27;8.48;;;4.13;;
12878;SDS011;20617;49.476;10.986;2022-11-23T11:08:35;6.18;;;4.00;;
12878;SDS011;20617;49.476;10.986;2022-11-23T11:10:56;9.95;;;4.20;;
12878;SDS011;20617;49.476;10.986;2022-11-23T11:13:02;7.18;;;3.80;;
12878;SDS011;20617;49.476;10.986;2022-11-23T11:15:29;10.15;;;3.92;;
12878;SDS011;20617;49.476;10.986;2022-11-23T11:17:39;7.95;;;3.95;;
12878;SDS011;20617;49.476;10.986;2022-11-23T11:21:49;5.68;;;3.38;;
12878;SDS011;20617;49.476;10.986;2022-11-23T11:23:54;7.38;;;3.60;;
12878;SDS011;20617;49.476;10.986;2022-11-23T11:26:08;6.47;;;2.80;;
12878;SDS011;20617;49.476;10.986;2022-11-23T11:28:21;7.47;;;3.28;;
12878;SDS011;20617;49.476;10.986;2022-11-23T11:30:40;4.57;;;2.50;;
12878;SDS011;20617;49.476;10.986;2022-11-23T11:32:54;7.03;;;3.05;;
12878;SDS011;20617;49.476;10.986;2022-11-23T11:35:10;7.57;;;2.92;;
12878;SDS011;20617;49.476;10.986;2022-11-23T11:37:24;5.35;;;2.30;;
12878;SDS011;20617;49.476;10.986;2022-11-23T11:39:37;9.13;;;3.17;;
12878;SDS011;20617;49.476;10.986;2022-11-23T11:41:47;6.60;;;2.80;;
12878;SDS011;20617;49.476;10.986;2022-11-23T11:43:56;5.63;;;2.40;;
12878;SDS011;20617;49.476;10.986;2022-11-23T11:46:12;7.00;;;3.17;;
12878;SDS011;20617;49.476;10.986;2022-11-23T11:48:32;7.13;;;2.25;;
12878;SDS011;20617;49.476;10.986;2022-11-23T11:50:42;7.22;;;3.15;;
12878;SDS011;20617;49.476;10.986;2022-11-23T11:52:54;5.13;;;2.90;;
12878;SDS011;20617;49.476;10.986;2022-11-23T11:55:04;7.10;;;2.60;;
12878;SDS011;20617;49.476;10.986;2022-11-23T11:57:18;6.90;;;3.60;;
12878;SDS011;20617;49.476;10.986;2022-11-23T11:59:26;7.32;;;2.90;;
12878;SDS011;20617;49.476;10.986;2022-11-23T12:01:39;6.28;;;2.78;;
12878;SDS011;20617;49.476;10.986;2022-11-23T12:03:53;7.95;;;2.63;;
12878;SDS011;20617;49.476;10.986;2022-11-23T12:06:03;6.82;;;2.70;;
12878;SDS011;20617;49.476;10.986;2022-11-23T12:08:13;5.90;;;2.90;;
12878;SDS011;20617;49.476;10.986;2022-11-23T12:10:23;5.95;;;2.53;;
12878;SDS011;20617;49.476;10.986;2022-11-23T12:12:33;6.10;;;2.60;;
12878;SDS011;20617;49.476;10.986;2022-11-23T12:14:38;5.78;;;2.33;;
12878;SDS011;20617;49.476;10.986;2022-11-23T12:16:49;6.32;;;2.17;;
12878;SDS011;20617;49.476;10.986;2022-11-23T12:19:21;5.88;;;2.50;;
12878;SDS011;20617;49.476;10.986;2022-11-23T12:21:41;4.95;;;1.98;;
12878;SDS011;20617;49.476;10.986;2022-11-23T12:24:05;4.15;;;1.95;;
12878;SDS011;20617;49.476;10.986;2022-11-23T12:26:20;5.30;;;2.42;;
12878;SDS011;20617;49.476;10.986;2022-11-23T12:28:37;6.80;;;2.80;;
12878;SDS011;20617;49.476;10.986;2022-11-23T12:30:56;4.82;;;2.53;;
12878;SDS011;20617;49.476;10.986;2022-11-23T12:33:19;5.40;;;2.28;;
12878;SDS011;20617;49.476;10.986;2022-11-23T12:35:54;7.82;;;2.05;;
12878;SDS011;20617;49.476;10.986;2022-11-23T12:38:25;5.43;;;2.13;;
12878;SDS011;20617;49.476;10.986;2022-11-23T12:40:39;5.45;;;2.05;;
12878;SDS011;20617;49.476;10.986;2022-11-23T12:42:57;4.60;;;1.98;;
12878;SDS011;20617;49.476;10.986;2022-11-23T12:45:10;6.15;;;2.10;;
12878;SDS011;20617;49.476;10.986;2022-11-23T12:47:29;6.30;;;1.90;;
12878;SDS011;20617;49.476;10.986;2022-11-23T12:49:45;3.53;;;1.83;;
12878;SDS011;20617;49.476;10.986;2022-11-23T12:51:57;5.03;;;1.40;;
12878;SDS011;20617;49.476;10.986;2022-11-23T12:54:24;5.15;;;1.52;;
12878;SDS011;20617;49.476;10.986;2022-11-23T12:59:08;8.18;;;3.50;;
12878;SDS011;20617;49.476;10.986;2022-11-23T13:01:15;6.40;;;2.47;;
12878;SDS011;20617;49.476;10.986;2022-11-23T13:03:49;9.30;;;2.30;;
12878;SDS011;20617;49.476;10.986;2022-11-23T13:11:45;4.13;;;2.10;;
12878;SDS011;20617;49.476;10.986;2022-11-23T13:14:08;3.47;;;1.85;;
12878;SDS011;20617;49.476;10.986;2022-11-23T13:16:20;6.22;;;2.08;;
12878;SDS011;20617;49.476;10.986;2022-11-23T13:18:39;5.95;;;2.38;;
12878;SDS011;20617;49.476;10.986;2022-11-23T13:20:58;6.90;;;2.03;;